sensor_id;sensor_type;location;lat;lon;timestamp;P1;durP1;ratioP1;P2;durP2;ratioP2
10416;SDS011;62605;49.432;8.680;2023-05-10T00:00:18;2.55;;;1.02;;
10416;SDS011;62605;49.432;8.680;2023-05-10T00:03:06;1.05;;;0.90;;
10416;SDS011;62605;49.432;8.680;2023-05-10T00:08:44;1.27;;;0.90;;
10416;SDS011;62605;49.432;8.680;2023-05-10T00:11:19;0.85;;;0.85;;
10416;SDS011;62605;49.432;8.680;2023-05-10T00:13:48;0.65;;;0.65;;
10416;SDS011;62605;49.432;8.680;2023-05-10T00:16:16;0.80;;;0.80;;
10416;SDS011;62605;49.432;8.680;2023-05-10T00:18:44;0.68;;;0.68;;
10416;SDS011;62605;49.432;8.680;2023-05-10T00:21:12;0.90;;;0.80;;
10416;SDS011;62605;49.432;8.680;2023-05-10T00:23:39;0.70;;;0.70;;
10416;SDS011;62605;49.432;8.680;2023-05-10T00:26:25;0.60;;;0.60;;
10416;SDS011;62605;49.432;8.680;2023-05-10T00:28:54;1.17;;;0.80;;
10416;SDS011;62605;49.432;8.680;2023-05-10T00:33:55;0.70;;;0.67;;
10416;SDS011;62605;49.432;8.680;2023-05-10T00:36:22;0.77;;;0.77;;
10416;SDS011;62605;49.432;8.680;2023-05-10T00:38:54;0.68;;;0.68;;
10416;SDS011;62605;49.432;8.680;2023-05-10T00:41:22;0.73;;;0.73;;
10416;SDS011;62605;49.432;8.680;2023-05-10T00:44:00;0.60;;;0.60;;
10416;SDS011;62605;49.432;8.680;2023-05-10T04:10:12;1.30;;;1.20;;
10416;SDS011;62605;49.432;8.680;2023-05-10T04:12:41;2.87;;;1.70;;
10416;SDS011;62605;49.432;8.680;2023-05-10T04:17:45;1.67;;;1.50;;
10416;SDS011;62605;49.432;8.680;2023-05-10T04:20:17;2.17;;;1.70;;
10416;SDS011;62605;49.432;8.680;2023-05-10T04:33:24;2.90;;;1.45;;
10416;SDS011;62605;49.432;8.680;2023-05-10T04:35:52;1.83;;;1.67;;
10416;SDS011;62605;49.432;8.680;2023-05-10T04:43:31;1.80;;;1.70;;
10416;SDS011;62605;49.432;8.680;2023-05-10T04:51:14;2.27;;;1.33;;
10416;SDS011;62605;49.432;8.680;2023-05-10T04:56:42;2.22;;;1.83;;
10416;SDS011;62605;49.432;8.680;2023-05-10T05:01:45;2.33;;;2.05;;
10416;SDS011;62605;49.432;8.680;2023-05-10T05:12:20;4.20;;;2.17;;
10416;SDS011;62605;49.432;8.680;2023-05-10T05:19:55;3.83;;;2.47;;
10416;SDS011;62605;49.432;8.680;2023-05-10T05:22:22;2.78;;;2.30;;
10416;SDS011;62605;49.432;8.680;2023-05-10T05:24:54;2.28;;;2.08;;
10416;SDS011;62605;49.432;8.680;2023-05-10T05:27:21;2.42;;;2.20;;
10416;SDS011;62605;49.432;8.680;2023-05-10T05:29:49;2.30;;;2.10;;
10416;SDS011;62605;49.432;8.680;2023-05-10T05:32:16;2.08;;;1.88;;
10416;SDS011;62605;49.432;8.680;2023-05-10T05:34:44;2.33;;;2.13;;
10416;SDS011;62605;49.432;8.680;2023-05-10T05:37:12;1.75;;;1.65;;
10416;SDS011;62605;49.432;8.680;2023-05-10T05:39:41;2.45;;;2.13;;
10416;SDS011;62605;49.432;8.680;2023-05-10T05:42:09;2.55;;;1.88;;
10416;SDS011;62605;49.432;8.680;2023-05-10T05:44:38;6.75;;;2.53;;
10416;SDS011;62605;49.432;8.680;2023-05-10T05:47:05;2.30;;;2.10;;
10416;SDS011;62605;49.432;8.680;2023-05-10T05:49:32;2.20;;;2.00;;
10416;SDS011;62605;49.432;8.680;2023-05-10T05:52:01;2.22;;;2.03;;
10416;SDS011;62605;49.432;8.680;2023-05-10T05:54:28;2.65;;;2.10;;
10416;SDS011;62605;49.432;8.680;2023-05-10T05:56:56;2.33;;;2.13;;
10416;SDS011;62605;49.432;8.680;2023-05-10T05:59:25;3.75;;;2.22;;
10416;SDS011;62605;49.432;8.680;2023-05-10T06:01:54;2.42;;;2.22;;
10416;SDS011;62605;49.432;8.680;2023-05-10T06:04:21;3.47;;;1.90;;
10416;SDS011;62605;49.432;8.680;2023-05-10T06:06:48;2.60;;;2.40;;
10416;SDS011;62605;49.432;8.680;2023-05-10T06:09:15;3.20;;;1.98;;
10416;SDS011;62605;49.432;8.680;2023-05-10T06:11:42;2.05;;;1.88;;
10416;SDS011;62605;49.432;8.680;2023-05-10T06:14:09;2.63;;;2.42;;
10416;SDS011;62605;49.432;8.680;2023-05-10T06:16:37;2.25;;;1.95;;
10416;SDS011;62605;49.432;8.680;2023-05-10T06:19:04;2.25;;;2.05;;
10416;SDS011;62605;49.432;8.680;2023-05-10T06:21:31;2.22;;;2.03;;
10416;SDS011;62605;49.432;8.680;2023-05-10T06:23:58;2.65;;;2.30;;
10416;SDS011;62605;49.432;8.680;2023-05-10T06:26:25;2.50;;;2.30;;
10416;SDS011;62605;49.432;8.680;2023-05-10T06:28:52;3.60;;;1.77;;
10416;SDS011;62605;49.432;8.680;2023-05-10T06:31:19;2.47;;;2.28;;
10416;SDS011;62605;49.432;8.680;2023-05-10T06:33:48;2.67;;;2.47;;
10416;SDS011;62605;49.432;8.680;2023-05-10T06:36:15;2.75;;;2.40;;
10416;SDS011;62605;49.432;8.680;2023-05-10T06:38:42;3.00;;;2.53;;
10416;SDS011;62605;49.432;8.680;2023-05-10T06:41:09;3.75;;;2.72;;
10416;SDS011;62605;49.432;8.680;2023-05-10T06:43:36;2.42;;;2.20;;
10416;SDS011;62605;49.432;8.680;2023-05-10T06:46:05;3.15;;;2.70;;
10416;SDS011;62605;49.432;8.680;2023-05-10T06:48:32;2.38;;;2.13;;
10416;SDS011;62605;49.432;8.680;2023-05-10T06:51:01;4.40;;;2.92;;
10416;SDS011;62605;49.432;8.680;2023-05-10T06:53:28;2.30;;;2.10;;
10416;SDS011;62605;49.432;8.680;2023-05-10T06:55:55;2.22;;;2.03;;
10416;SDS011;62605;49.432;8.680;2023-05-10T06:58:22;3.95;;;2.20;;
10416;SDS011;62605;49.432;8.680;2023-05-10T07:00:49;2.55;;;2.33;;
10416;SDS011;62605;49.432;8.680;2023-05-10T07:03:17;4.53;;;2.25;;
10416;SDS011;62605;49.432;8.680;2023-05-10T07:05:44;2.60;;;2.22;;
10416;SDS011;62605;49.432;8.680;2023-05-10T07:08:12;2.75;;;2.47;;
10416;SDS011;62605;49.432;8.680;2023-05-10T07:10:39;2.38;;;2.17;;
10416;SDS011;62605;49.432;8.680;2023-05-10T07:13:06;2.45;;;2.25;;
10416;SDS011;62605;49.432;8.680;2023-05-10T07:15:34;2.58;;;2.38;;
10416;SDS011;62605;49.432;8.680;2023-05-10T07:18:02;2.20;;;2.00;;
10416;SDS011;62605;49.432;8.680;2023-05-10T07:20:30;2.17;;;1.98;;
10416;SDS011;62605;49.432;8.680;2023-05-10T07:22:58;3.88;;;2.17;;
10416;SDS011;62605;49.432;8.680;2023-05-10T07:25:26;5.53;;;2.10;;
10416;SDS011;62605;49.432;8.680;2023-05-10T07:27:53;2.92;;;2.20;;
10416;SDS011;62605;49.432;8.680;2023-05-10T07:30:20;2.25;;;2.05;;
10416;SDS011;62605;49.432;8.680;2023-05-10T07:32:48;2.50;;;2.30;;
10416;SDS011;62605;49.432;8.680;2023-05-10T07:35:15;3.08;;;2.05;;
10416;SDS011;62605;49.432;8.680;2023-05-10T07:37:42;2.10;;;1.65;;
10416;SDS011;62605;49.432;8.680;2023-05-10T07:40:09;2.08;;;1.73;;
10416;SDS011;62605;49.432;8.680;2023-05-10T07:42:38;3.25;;;1.77;;
10416;SDS011;62605;49.432;8.680;2023-05-10T07:45:06;1.80;;;1.40;;
10416;SDS011;62605;49.432;8.680;2023-05-10T07:47:34;2.95;;;2.10;;
10416;SDS011;62605;49.432;8.680;2023-05-10T07:50:00;1.70;;;1.60;;
10416;SDS011;62605;49.432;8.680;2023-05-10T07:52:27;1.83;;;1.67;;
10416;SDS011;62605;49.432;8.680;2023-05-10T07:54:54;3.40;;;1.45;;
10416;SDS011;62605;49.432;8.680;2023-05-10T07:57:21;1.90;;;1.60;;
10416;SDS011;62605;49.432;8.680;2023-05-10T07:59:50;1.88;;;1.67;;
10416;SDS011;62605;49.432;8.680;2023-05-10T08:02:17;5.00;;;1.80;;
10416;SDS011;62605;49.432;8.680;2023-05-10T08:04:45;1.83;;;1.60;;
10416;SDS011;62605;49.432;8.680;2023-05-10T08:07:12;1.73;;;1.63;;
10416;SDS011;62605;49.432;8.680;2023-05-10T08:09:38;3.85;;;1.58;;
10416;SDS011;62605;49.432;8.680;2023-05-10T08:12:06;1.65;;;1.27;;
10416;SDS011;62605;49.432;8.680;2023-05-10T08:14:33;1.45;;;1.35;;
10416;SDS011;62605;49.432;8.680;2023-05-10T08:17:02;1.58;;;1.48;;
10416;SDS011;62605;49.432;8.680;2023-05-10T08:19:30;1.77;;;1.30;;
10416;SDS011;62605;49.432;8.680;2023-05-10T08:21:57;1.30;;;1.20;;
10416;SDS011;62605;49.432;8.680;2023-05-10T08:24:24;2.10;;;1.50;;
10416;SDS011;62605;49.432;8.680;2023-05-10T08:26:51;3.45;;;1.30;;
10416;SDS011;62605;49.432;8.680;2023-05-10T08:29:18;3.08;;;1.30;;
10416;SDS011;62605;49.432;8.680;2023-05-10T08:31:45;2.17;;;1.35;;
10416;SDS011;62605;49.432;8.680;2023-05-10T08:34:13;2.58;;;1.13;;
10416;SDS011;62605;49.432;8.680;2023-05-10T08:36:40;1.63;;;1.10;;
10416;SDS011;62605;49.432;8.680;2023-05-10T08:39:08;1.45;;;1.30;;
10416;SDS011;62605;49.432;8.680;2023-05-10T08:41:35;1.00;;;1.00;;
10416;SDS011;62605;49.432;8.680;2023-05-10T08:44:05;1.20;;;1.20;;
10416;SDS011;62605;49.432;8.680;2023-05-10T08:46:34;1.35;;;1.25;;
10416;SDS011;62605;49.432;8.680;2023-05-10T08:49:05;1.63;;;1.23;;
10416;SDS011;62605;49.432;8.680;2023-05-10T08:51:36;1.10;;;1.05;;
10416;SDS011;62605;49.432;8.680;2023-05-10T08:54:06;1.08;;;0.98;;
10416;SDS011;62605;49.432;8.680;2023-05-10T08:56:34;0.95;;;0.95;;
10416;SDS011;62605;49.432;8.680;2023-05-10T08:59:01;1.05;;;0.95;;
10416;SDS011;62605;49.432;8.680;2023-05-10T09:01:28;1.05;;;1.00;;
10416;SDS011;62605;49.432;8.680;2023-05-10T09:03:58;1.00;;;0.93;;
10416;SDS011;62605;49.432;8.680;2023-05-10T09:06:25;1.25;;;0.98;;
10416;SDS011;62605;49.432;8.680;2023-05-10T09:08:53;1.00;;;1.00;;
10416;SDS011;62605;49.432;8.680;2023-05-10T09:11:21;0.90;;;0.90;;
10416;SDS011;62605;49.432;8.680;2023-05-10T09:13:48;1.23;;;1.10;;
10416;SDS011;62605;49.432;8.680;2023-05-10T09:16:18;1.02;;;0.98;;
10416;SDS011;62605;49.432;8.680;2023-05-10T09:18:45;0.95;;;0.95;;
10416;SDS011;62605;49.432;8.680;2023-05-10T09:21:13;1.02;;;1.00;;
10416;SDS011;62605;49.432;8.680;2023-05-10T09:23:42;2.88;;;0.98;;
10416;SDS011;62605;49.432;8.680;2023-05-10T09:26:11;1.13;;;1.00;;
10416;SDS011;62605;49.432;8.680;2023-05-10T09:28:49;0.93;;;0.93;;
10416;SDS011;62605;49.432;8.680;2023-05-10T09:31:17;0.80;;;0.80;;
10416;SDS011;62605;49.432;8.680;2023-05-10T09:33:45;0.85;;;0.85;;
10416;SDS011;62605;49.432;8.680;2023-05-10T09:36:12;0.98;;;0.93;;
10416;SDS011;62605;49.432;8.680;2023-05-10T09:38:46;0.82;;;0.82;;
10416;SDS011;62605;49.432;8.680;2023-05-10T09:41:19;2.47;;;1.13;;
10416;SDS011;62605;49.432;8.680;2023-05-10T09:43:47;0.80;;;0.73;;
10416;SDS011;62605;49.432;8.680;2023-05-10T09:46:15;1.75;;;0.93;;
10416;SDS011;62605;49.432;8.680;2023-05-10T09:48:43;0.95;;;0.90;;
10416;SDS011;62605;49.432;8.680;2023-05-10T09:51:18;1.15;;;1.00;;
10416;SDS011;62605;49.432;8.680;2023-05-10T09:53:47;1.45;;;0.93;;
10416;SDS011;62605;49.432;8.680;2023-05-10T09:59:04;0.75;;;0.75;;
10416;SDS011;62605;49.432;8.680;2023-05-10T10:01:31;1.75;;;0.90;;
10416;SDS011;62605;49.432;8.680;2023-05-10T10:03:59;1.20;;;1.10;;
10416;SDS011;62605;49.432;8.680;2023-05-10T10:06:34;0.82;;;0.80;;
10416;SDS011;62605;49.432;8.680;2023-05-10T10:09:03;0.73;;;0.73;;
10416;SDS011;62605;49.432;8.680;2023-05-10T10:11:32;1.00;;;0.80;;
10416;SDS011;62605;49.432;8.680;2023-05-10T10:14:02;1.25;;;1.15;;
10416;SDS011;62605;49.432;8.680;2023-05-10T10:16:32;0.82;;;0.82;;
10416;SDS011;62605;49.432;8.680;2023-05-10T10:18:59;0.90;;;0.90;;
10416;SDS011;62605;49.432;8.680;2023-05-10T10:21:27;0.80;;;0.80;;
10416;SDS011;62605;49.432;8.680;2023-05-10T10:23:55;1.27;;;0.80;;
10416;SDS011;62605;49.432;8.680;2023-05-10T10:26:23;0.50;;;0.50;;
10416;SDS011;62605;49.432;8.680;2023-05-10T10:28:57;0.80;;;0.80;;
10416;SDS011;62605;49.432;8.680;2023-05-10T10:31:36;0.70;;;0.70;;
10416;SDS011;62605;49.432;8.680;2023-05-10T10:34:08;0.85;;;0.82;;
10416;SDS011;62605;49.432;8.680;2023-05-10T10:36:42;1.27;;;1.17;;
10416;SDS011;62605;49.432;8.680;2023-05-10T10:39:11;1.20;;;0.55;;
10416;SDS011;62605;49.432;8.680;2023-05-10T10:41:39;1.27;;;0.98;;
10416;SDS011;62605;49.432;8.680;2023-05-10T10:44:32;0.73;;;0.73;;
10416;SDS011;62605;49.432;8.680;2023-05-10T10:47:02;0.82;;;0.80;;
10416;SDS011;62605;49.432;8.680;2023-05-10T10:49:37;0.70;;;0.70;;
10416;SDS011;62605;49.432;8.680;2023-05-10T10:52:21;0.90;;;0.90;;
10416;SDS011;62605;49.432;8.680;2023-05-10T10:54:52;0.82;;;0.82;;
10416;SDS011;62605;49.432;8.680;2023-05-10T10:57:20;1.23;;;0.90;;
10416;SDS011;62605;49.432;8.680;2023-05-10T10:59:49;1.50;;;1.20;;
10416;SDS011;62605;49.432;8.680;2023-05-10T11:02:32;0.98;;;0.90;;
10416;SDS011;62605;49.432;8.680;2023-05-10T11:08:06;0.80;;;0.80;;
10416;SDS011;62605;49.432;8.680;2023-05-10T11:13:34;1.85;;;0.70;;
10416;SDS011;62605;49.432;8.680;2023-05-10T11:16:16;0.70;;;0.70;;
10416;SDS011;62605;49.432;8.680;2023-05-10T11:18:53;0.70;;;0.70;;
10416;SDS011;62605;49.432;8.680;2023-05-10T11:21:23;1.70;;;1.00;;
10416;SDS011;62605;49.432;8.680;2023-05-10T11:23:52;0.80;;;0.80;;
10416;SDS011;62605;49.432;8.680;2023-05-10T11:26:21;1.13;;;1.10;;
10416;SDS011;62605;49.432;8.680;2023-05-10T11:28:51;1.35;;;1.00;;
10416;SDS011;62605;49.432;8.680;2023-05-10T11:31:21;0.70;;;0.70;;
10416;SDS011;62605;49.432;8.680;2023-05-10T11:33:51;0.93;;;0.82;;
10416;SDS011;62605;49.432;8.680;2023-05-10T11:36:20;2.97;;;0.95;;
10416;SDS011;62605;49.432;8.680;2023-05-10T11:38:53;1.95;;;0.90;;
10416;SDS011;62605;49.432;8.680;2023-05-10T11:41:22;2.55;;;0.70;;
10416;SDS011;62605;49.432;8.680;2023-05-10T11:43:52;0.70;;;0.70;;
10416;SDS011;62605;49.432;8.680;2023-05-10T11:46:22;2.08;;;0.70;;
10416;SDS011;62605;49.432;8.680;2023-05-10T11:48:53;3.13;;;0.73;;
10416;SDS011;62605;49.432;8.680;2023-05-10T11:51:25;1.17;;;0.80;;
10416;SDS011;62605;49.432;8.680;2023-05-10T11:53:52;1.88;;;0.93;;
10416;SDS011;62605;49.432;8.680;2023-05-10T11:56:20;0.50;;;0.50;;
10416;SDS011;62605;49.432;8.680;2023-05-10T11:58:52;0.63;;;0.63;;
10416;SDS011;62605;49.432;8.680;2023-05-10T12:01:21;1.35;;;0.57;;
10416;SDS011;62605;49.432;8.680;2023-05-10T12:03:49;1.10;;;0.60;;
10416;SDS011;62605;49.432;8.680;2023-05-10T12:06:17;0.50;;;0.50;;
10416;SDS011;62605;49.432;8.680;2023-05-10T12:08:46;3.05;;;0.63;;
10416;SDS011;62605;49.432;8.680;2023-05-10T12:11:17;0.73;;;0.73;;
10416;SDS011;62605;49.432;8.680;2023-05-10T12:13:46;0.80;;;0.63;;
10416;SDS011;62605;49.432;8.680;2023-05-10T12:16:15;0.65;;;0.65;;
10416;SDS011;62605;49.432;8.680;2023-05-10T12:18:45;0.65;;;0.65;;
10416;SDS011;62605;49.432;8.680;2023-05-10T12:21:16;0.43;;;0.43;;
10416;SDS011;62605;49.432;8.680;2023-05-10T12:23:45;0.47;;;0.47;;
10416;SDS011;62605;49.432;8.680;2023-05-10T12:26:13;0.60;;;0.60;;
10416;SDS011;62605;49.432;8.680;2023-05-10T12:28:41;0.95;;;0.70;;
10416;SDS011;62605;49.432;8.680;2023-05-10T12:31:09;1.98;;;0.77;;
10416;SDS011;62605;49.432;8.680;2023-05-10T12:33:37;1.35;;;0.80;;
10416;SDS011;62605;49.432;8.680;2023-05-10T12:36:09;2.17;;;0.80;;
10416;SDS011;62605;49.432;8.680;2023-05-10T12:38:38;0.50;;;0.50;;
10416;SDS011;62605;49.432;8.680;2023-05-10T12:41:08;0.65;;;0.65;;
10416;SDS011;62605;49.432;8.680;2023-05-10T12:43:36;1.13;;;1.02;;
10416;SDS011;62605;49.432;8.680;2023-05-10T12:46:04;0.77;;;0.77;;
10416;SDS011;62605;49.432;8.680;2023-05-10T12:48:33;5.78;;;0.80;;
10416;SDS011;62605;49.432;8.680;2023-05-10T12:51:00;1.85;;;0.98;;
10416;SDS011;62605;49.432;8.680;2023-05-10T12:53:29;1.88;;;0.90;;
10416;SDS011;62605;49.432;8.680;2023-05-10T12:55:59;0.73;;;0.65;;
10416;SDS011;62605;49.432;8.680;2023-05-10T12:58:26;1.95;;;0.70;;
10416;SDS011;62605;49.432;8.680;2023-05-10T13:00:53;2.20;;;0.77;;
10416;SDS011;62605;49.432;8.680;2023-05-10T13:03:21;2.47;;;0.80;;
10416;SDS011;62605;49.432;8.680;2023-05-10T13:05:48;1.48;;;0.90;;
10416;SDS011;62605;49.432;8.680;2023-05-10T13:08:15;1.75;;;0.85;;
10416;SDS011;62605;49.432;8.680;2023-05-10T13:10:44;0.75;;;0.57;;
10416;SDS011;62605;49.432;8.680;2023-05-10T13:13:11;0.93;;;0.70;;
10416;SDS011;62605;49.432;8.680;2023-05-10T13:15:38;2.42;;;0.95;;
10416;SDS011;62605;49.432;8.680;2023-05-10T13:18:05;4.93;;;2.17;;
10416;SDS011;62605;49.432;8.680;2023-05-10T13:20:33;2.47;;;1.60;;
10416;SDS011;62605;49.432;8.680;2023-05-10T13:23:00;0.98;;;0.85;;
10416;SDS011;62605;49.432;8.680;2023-05-10T13:25:27;0.82;;;0.77;;
10416;SDS011;62605;49.432;8.680;2023-05-10T13:27:56;0.73;;;0.70;;
10416;SDS011;62605;49.432;8.680;2023-05-10T13:30:23;1.38;;;0.60;;
10416;SDS011;62605;49.432;8.680;2023-05-10T13:32:51;1.23;;;0.73;;
10416;SDS011;62605;49.432;8.680;2023-05-10T13:35:18;0.70;;;0.70;;
10416;SDS011;62605;49.432;8.680;2023-05-10T13:37:45;0.55;;;0.50;;
10416;SDS011;62605;49.432;8.680;2023-05-10T13:40:12;0.60;;;0.60;;
10416;SDS011;62605;49.432;8.680;2023-05-10T13:42:40;0.82;;;0.63;;
10416;SDS011;62605;49.432;8.680;2023-05-10T13:45:09;0.40;;;0.40;;
10416;SDS011;62605;49.432;8.680;2023-05-10T13:47:37;0.73;;;0.55;;
10416;SDS011;62605;49.432;8.680;2023-05-10T13:50:04;0.50;;;0.50;;
10416;SDS011;62605;49.432;8.680;2023-05-10T13:52:31;0.82;;;0.70;;
10416;SDS011;62605;49.432;8.680;2023-05-10T13:54:58;0.60;;;0.60;;
10416;SDS011;62605;49.432;8.680;2023-05-10T13:57:25;1.20;;;1.00;;
10416;SDS011;62605;49.432;8.680;2023-05-10T13:59:53;0.63;;;0.50;;
10416;SDS011;62605;49.432;8.680;2023-05-10T14:02:23;0.40;;;0.40;;
10416;SDS011;62605;49.432;8.680;2023-05-10T14:04:52;1.27;;;0.75;;
10416;SDS011;62605;49.432;8.680;2023-05-10T14:07:19;0.50;;;0.50;;
10416;SDS011;62605;49.432;8.680;2023-05-10T14:09:46;3.08;;;0.60;;
10416;SDS011;62605;49.432;8.680;2023-05-10T14:12:13;1.48;;;0.50;;
10416;SDS011;62605;49.432;8.680;2023-05-10T14:14:41;1.50;;;0.55;;
10416;SDS011;62605;49.432;8.680;2023-05-10T14:17:08;0.57;;;0.40;;
10416;SDS011;62605;49.432;8.680;2023-05-10T14:19:37;1.02;;;0.52;;
10416;SDS011;62605;49.432;8.680;2023-05-10T14:22:04;1.23;;;0.50;;
10416;SDS011;62605;49.432;8.680;2023-05-10T14:24:31;0.70;;;0.60;;
10416;SDS011;62605;49.432;8.680;2023-05-10T14:26:58;0.40;;;0.40;;
10416;SDS011;62605;49.432;8.680;2023-05-10T14:29:25;0.30;;;0.30;;
10416;SDS011;62605;49.432;8.680;2023-05-10T14:31:52;3.03;;;0.63;;
10416;SDS011;62605;49.432;8.680;2023-05-10T14:34:19;2.72;;;0.52;;
10416;SDS011;62605;49.432;8.680;2023-05-10T14:36:47;1.65;;;0.73;;
10416;SDS011;62605;49.432;8.680;2023-05-10T14:39:15;0.50;;;0.50;;
10416;SDS011;62605;49.432;8.680;2023-05-10T14:41:41;0.65;;;0.60;;
10416;SDS011;62605;49.432;8.680;2023-05-10T14:44:10;0.60;;;0.60;;
10416;SDS011;62605;49.432;8.680;2023-05-10T14:46:37;0.68;;;0.50;;
10416;SDS011;62605;49.432;8.680;2023-05-10T14:49:04;0.60;;;0.60;;
10416;SDS011;62605;49.432;8.680;2023-05-10T14:51:31;2.83;;;0.82;;
10416;SDS011;62605;49.432;8.680;2023-05-10T14:53:59;1.02;;;0.70;;
10416;SDS011;62605;49.432;8.680;2023-05-10T14:56:27;0.60;;;0.60;;
10416;SDS011;62605;49.432;8.680;2023-05-10T14:58:55;0.90;;;0.60;;
10416;SDS011;62605;49.432;8.680;2023-05-10T15:01:22;0.73;;;0.60;;
10416;SDS011;62605;49.432;8.680;2023-05-10T15:03:49;0.40;;;0.40;;
10416;SDS011;62605;49.432;8.680;2023-05-10T15:06:16;0.82;;;0.60;;
10416;SDS011;62605;49.432;8.680;2023-05-10T15:08:48;1.05;;;0.52;;
10416;SDS011;62605;49.432;8.680;2023-05-10T15:11:17;0.50;;;0.50;;
10416;SDS011;62605;49.432;8.680;2023-05-10T15:13:45;0.40;;;0.35;;
10416;SDS011;62605;49.432;8.680;2023-05-10T15:16:12;1.27;;;0.60;;
10416;SDS011;62605;49.432;8.680;2023-05-10T15:18:39;0.50;;;0.50;;
10416;SDS011;62605;49.432;8.680;2023-05-10T15:21:06;0.57;;;0.57;;
10416;SDS011;62605;49.432;8.680;2023-05-10T15:23:32;0.38;;;0.38;;
10416;SDS011;62605;49.432;8.680;2023-05-10T15:25:59;0.63;;;0.60;;
10416;SDS011;62605;49.432;8.680;2023-05-10T15:28:29;0.82;;;0.60;;
10416;SDS011;62605;49.432;8.680;2023-05-10T15:30:56;0.65;;;0.65;;
10416;SDS011;62605;49.432;8.680;2023-05-10T15:33:23;1.02;;;0.70;;
10416;SDS011;62605;49.432;8.680;2023-05-10T15:35:50;0.55;;;0.50;;
10416;SDS011;62605;49.432;8.680;2023-05-10T15:38:18;1.73;;;0.52;;
10416;SDS011;62605;49.432;8.680;2023-05-10T15:40:45;0.70;;;0.70;;
10416;SDS011;62605;49.432;8.680;2023-05-10T15:43:12;0.73;;;0.73;;
10416;SDS011;62605;49.432;8.680;2023-05-10T15:45:41;2.83;;;0.90;;
10416;SDS011;62605;49.432;8.680;2023-05-10T15:48:08;1.48;;;0.70;;
10416;SDS011;62605;49.432;8.680;2023-05-10T15:50:35;0.55;;;0.55;;
10416;SDS011;62605;49.432;8.680;2023-05-10T15:53:02;1.00;;;0.68;;
10416;SDS011;62605;49.432;8.680;2023-05-10T15:55:29;0.55;;;0.55;;
10416;SDS011;62605;49.432;8.680;2023-05-10T15:57:56;0.52;;;0.52;;
10416;SDS011;62605;49.432;8.680;2023-05-10T16:00:23;0.60;;;0.60;;
10416;SDS011;62605;49.432;8.680;2023-05-10T16:02:52;1.27;;;0.50;;
10416;SDS011;62605;49.432;8.680;2023-05-10T16:05:19;1.52;;;0.43;;
10416;SDS011;62605;49.432;8.680;2023-05-10T16:07:46;0.68;;;0.68;;
10416;SDS011;62605;49.432;8.680;2023-05-10T16:10:13;1.45;;;0.68;;
10416;SDS011;62605;49.432;8.680;2023-05-10T16:12:40;0.45;;;0.45;;
10416;SDS011;62605;49.432;8.680;2023-05-10T16:15:07;0.60;;;0.60;;
10416;SDS011;62605;49.432;8.680;2023-05-10T16:17:35;0.52;;;0.52;;
10416;SDS011;62605;49.432;8.680;2023-05-10T16:20:03;0.55;;;0.52;;
10416;SDS011;62605;49.432;8.680;2023-05-10T16:22:31;0.47;;;0.47;;
10416;SDS011;62605;49.432;8.680;2023-05-10T16:24:58;0.40;;;0.40;;
10416;SDS011;62605;49.432;8.680;2023-05-10T16:27:25;0.73;;;0.70;;
10416;SDS011;62605;49.432;8.680;2023-05-10T16:29:54;0.98;;;0.50;;
10416;SDS011;62605;49.432;8.680;2023-05-10T16:32:21;0.65;;;0.52;;
10416;SDS011;62605;49.432;8.680;2023-05-10T16:34:48;0.43;;;0.40;;
10416;SDS011;62605;49.432;8.680;2023-05-10T16:37:18;0.50;;;0.50;;
10416;SDS011;62605;49.432;8.680;2023-05-10T16:39:45;1.42;;;0.45;;
10416;SDS011;62605;49.432;8.680;2023-05-10T16:42:12;3.05;;;0.90;;
10416;SDS011;62605;49.432;8.680;2023-05-10T16:44:39;0.40;;;0.40;;
10416;SDS011;62605;49.432;8.680;2023-05-10T16:47:06;1.02;;;0.50;;
10416;SDS011;62605;49.432;8.680;2023-05-10T16:49:34;1.45;;;0.55;;
10416;SDS011;62605;49.432;8.680;2023-05-10T16:52:01;1.88;;;0.50;;
10416;SDS011;62605;49.432;8.680;2023-05-10T17:06:34;0.68;;;0.50;;
10416;SDS011;62605;49.432;8.680;2023-05-10T17:09:01;0.65;;;0.65;;
10416;SDS011;62605;49.432;8.680;2023-05-10T17:11:29;0.93;;;0.57;;
10416;SDS011;62605;49.432;8.680;2023-05-10T17:13:57;1.77;;;0.60;;
10416;SDS011;62605;49.432;8.680;2023-05-10T17:16:24;0.80;;;0.60;;
10416;SDS011;62605;49.432;8.680;2023-05-10T17:18:51;0.35;;;0.35;;
10416;SDS011;62605;49.432;8.680;2023-05-10T17:21:18;0.63;;;0.40;;
10416;SDS011;62605;49.432;8.680;2023-05-10T17:23:46;0.52;;;0.52;;
10416;SDS011;62605;49.432;8.680;2023-05-10T17:26:13;0.52;;;0.52;;
10416;SDS011;62605;49.432;8.680;2023-05-10T17:28:43;0.65;;;0.65;;
10416;SDS011;62605;49.432;8.680;2023-05-10T17:31:10;0.70;;;0.70;;
10416;SDS011;62605;49.432;8.680;2023-05-10T17:33:37;0.95;;;0.77;;
10416;SDS011;62605;49.432;8.680;2023-05-10T17:36:04;0.40;;;0.40;;
10416;SDS011;62605;49.432;8.680;2023-05-10T17:38:31;0.60;;;0.60;;
10416;SDS011;62605;49.432;8.680;2023-05-10T17:40:59;0.77;;;0.73;;
10416;SDS011;62605;49.432;8.680;2023-05-10T17:43:26;1.52;;;0.73;;
10416;SDS011;62605;49.432;8.680;2023-05-10T17:45:53;1.58;;;0.80;;
10416;SDS011;62605;49.432;8.680;2023-05-10T17:48:20;3.80;;;0.70;;
10416;SDS011;62605;49.432;8.680;2023-05-10T17:50:48;0.70;;;0.70;;
10416;SDS011;62605;49.432;8.680;2023-05-10T17:53:15;3.70;;;0.70;;
10416;SDS011;62605;49.432;8.680;2023-05-10T17:55:42;0.70;;;0.63;;
10416;SDS011;62605;49.432;8.680;2023-05-10T17:58:11;0.63;;;0.63;;
10416;SDS011;62605;49.432;8.680;2023-05-10T18:00:38;0.57;;;0.50;;
10416;SDS011;62605;49.432;8.680;2023-05-10T18:03:05;1.20;;;0.70;;
10416;SDS011;62605;49.432;8.680;2023-05-10T18:05:34;0.60;;;0.60;;
10416;SDS011;62605;49.432;8.680;2023-05-10T18:08:01;0.93;;;0.70;;
10416;SDS011;62605;49.432;8.680;2023-05-10T18:10:28;1.00;;;0.60;;
10416;SDS011;62605;49.432;8.680;2023-05-10T18:12:55;1.58;;;0.70;;
10416;SDS011;62605;49.432;8.680;2023-05-10T18:15:25;0.80;;;0.80;;
10416;SDS011;62605;49.432;8.680;2023-05-10T18:17:52;0.68;;;0.68;;
10416;SDS011;62605;49.432;8.680;2023-05-10T18:20:19;0.57;;;0.57;;
10416;SDS011;62605;49.432;8.680;2023-05-10T18:22:46;0.95;;;0.70;;
10416;SDS011;62605;49.432;8.680;2023-05-10T18:25:13;1.00;;;0.80;;
10416;SDS011;62605;49.432;8.680;2023-05-10T18:27:40;0.80;;;0.80;;
10416;SDS011;62605;49.432;8.680;2023-05-10T18:30:07;0.70;;;0.70;;
10416;SDS011;62605;49.432;8.680;2023-05-10T18:32:37;1.73;;;1.23;;
10416;SDS011;62605;49.432;8.680;2023-05-10T18:35:05;0.70;;;0.70;;
10416;SDS011;62605;49.432;8.680;2023-05-10T18:37:33;1.92;;;1.00;;
10416;SDS011;62605;49.432;8.680;2023-05-10T18:40:00;0.77;;;0.70;;
10416;SDS011;62605;49.432;8.680;2023-05-10T18:42:29;0.70;;;0.70;;
10416;SDS011;62605;49.432;8.680;2023-05-10T18:44:55;0.55;;;0.55;;
10416;SDS011;62605;49.432;8.680;2023-05-10T18:47:22;0.50;;;0.50;;
10416;SDS011;62605;49.432;8.680;2023-05-10T18:49:52;0.68;;;0.68;;
10416;SDS011;62605;49.432;8.680;2023-05-10T18:52:19;0.50;;;0.50;;
10416;SDS011;62605;49.432;8.680;2023-05-10T18:54:46;1.17;;;0.60;;
10416;SDS011;62605;49.432;8.680;2023-05-10T18:57:14;0.88;;;0.60;;
10416;SDS011;62605;49.432;8.680;2023-05-10T18:59:42;0.60;;;0.60;;
10416;SDS011;62605;49.432;8.680;2023-05-10T19:02:10;0.95;;;0.60;;
10416;SDS011;62605;49.432;8.680;2023-05-10T19:04:37;0.75;;;0.73;;
10416;SDS011;62605;49.432;8.680;2023-05-10T19:07:05;0.60;;;0.60;;
10416;SDS011;62605;49.432;8.680;2023-05-10T19:09:32;0.60;;;0.60;;
10416;SDS011;62605;49.432;8.680;2023-05-10T19:11:59;0.60;;;0.60;;
10416;SDS011;62605;49.432;8.680;2023-05-10T19:14:27;5.35;;;0.70;;
10416;SDS011;62605;49.432;8.680;2023-05-10T19:16:54;0.70;;;0.70;;
10416;SDS011;62605;49.432;8.680;2023-05-10T19:19:21;0.77;;;0.73;;
10416;SDS011;62605;49.432;8.680;2023-05-10T19:21:48;0.70;;;0.70;;
10416;SDS011;62605;49.432;8.680;2023-05-10T19:24:16;0.63;;;0.63;;
10416;SDS011;62605;49.432;8.680;2023-05-10T19:26:44;2.25;;;0.80;;